createdAt,value
2023-05-24T00:31:56.999Z,8.63
2023-05-24T01:02:28.163Z,8.07
2023-05-24T02:08:21.323Z,8.20
2023-05-24T02:33:57.369Z,7.83
2023-05-24T03:04:25.648Z,8.13
2023-05-24T03:50:04.091Z,7.60
2023-05-24T04:15:19.373Z,7.50
2023-05-24T04:55:26.234Z,7.43
2023-05-24T05:20:48.131Z,6.93
2023-05-24T05:41:24.992Z,7.07
2023-05-24T06:37:25.508Z,6.67
2023-05-24T08:13:45.392Z,6.20
2023-05-24T08:48:49.910Z,5.68
2023-05-24T09:04:19.017Z,5.72
2023-05-24T09:29:56.980Z,5.53
2023-05-24T11:06:20.512Z,7.28
2023-05-24T11:36:34.314Z,6.90
2023-05-24T12:07:13.788Z,7.07
2023-05-24T12:42:41.005Z,6.32
2023-05-24T13:18:06.221Z,5.45
2023-05-24T13:53:32.852Z,5.40
2023-05-24T14:18:51.800Z,5.90
2023-05-24T14:54:33.175Z,5.05
2023-05-24T15:24:21.175Z,5.78
2023-05-24T15:50:09.546Z,5.80
2023-05-24T16:35:21.534Z,13.82
2023-05-24T16:56:12.306Z,13.15
2023-05-24T17:21:31.767Z,13.40
2023-05-24T17:41:37.784Z,13.90
2023-05-24T18:17:28.637Z,15.27
2023-05-24T18:21:48.491Z,14.50
2023-05-24T18:47:32.432Z,14.70
2023-05-24T19:08:02.122Z,15.87
2023-05-24T19:28:27.003Z,14.67
2023-05-24T19:53:28.211Z,16.57
2023-05-24T20:24:04.365Z,17.77
2023-05-24T20:49:20.505Z,16.83
2023-05-24T21:19:59.827Z,17.63
2023-05-24T21:45:00.443Z,17.57
2023-05-24T23:16:30.107Z,21.47
2023-05-24T23:41:19.128Z,21.67
